createdAt,value
2019-01-03T00:04:11.860Z,57.8
2019-01-03T00:14:15.275Z,57.8
2019-01-03T00:24:18.668Z,57.3
2019-01-03T00:34:22.101Z,57.4
2019-01-03T00:44:25.528Z,58.1
2019-01-03T00:54:28.976Z,58.4
2019-01-03T01:04:32.373Z,59.3
2019-01-03T01:14:35.791Z,58.7
2019-01-03T01:24:39.210Z,58.2
2019-01-03T01:34:42.606Z,58.7
2019-01-03T01:44:46.015Z,59.5
2019-01-03T01:54:49.434Z,59.7
2019-01-03T02:04:52.851Z,59.6
2019-01-03T02:14:56.280Z,59.6
2019-01-03T02:24:59.686Z,59.5
2019-01-03T02:35:03.111Z,59.2
2019-01-03T02:45:06.512Z,59
2019-01-03T02:55:09.951Z,59.4
2019-01-03T03:05:13.366Z,59.2
2019-01-03T03:15:16.805Z,59.1
2019-01-03T03:25:20.231Z,59.3
2019-01-03T03:35:23.651Z,59.6
2019-01-03T03:45:27.071Z,59.5
2019-01-03T03:55:30.505Z,59
2019-01-03T04:05:33.930Z,59.4
2019-01-03T04:15:37.351Z,59.6
2019-01-03T04:25:40.798Z,59.9
2019-01-03T04:35:44.255Z,59.8
2019-01-03T04:45:47.667Z,59.7
2019-01-03T04:55:51.118Z,59.2
2019-01-03T05:05:54.535Z,58.7
2019-01-03T05:15:57.947Z,59.4
2019-01-03T05:26:01.399Z,59
2019-01-03T05:36:04.842Z,59
2019-01-03T05:46:08.238Z,58.8
2019-01-03T05:56:11.640Z,59.3
2019-01-03T06:06:15.073Z,59.2
2019-01-03T06:16:18.514Z,59.3
2019-01-03T06:26:21.963Z,58.6
2019-01-03T06:36:25.441Z,59
2019-01-03T06:46:28.878Z,59.6
2019-01-03T06:56:32.312Z,59.5
2019-01-03T07:06:35.746Z,58.5
2019-01-03T07:16:39.173Z,58.6
2019-01-03T07:26:42.618Z,58.7
2019-01-03T07:36:46.037Z,58.8
2019-01-03T07:46:49.442Z,59.2
2019-01-03T07:56:52.837Z,59.5
2019-01-03T08:06:56.267Z,59.1
2019-01-03T08:16:59.664Z,59.2
2019-01-03T08:27:03.082Z,58.8
2019-01-03T08:37:06.483Z,56.3
2019-01-03T08:47:09.909Z,54.5
2019-01-03T08:57:13.368Z,52.9
2019-01-03T09:07:16.771Z,53.2
2019-01-03T09:17:20.232Z,53.1
2019-01-03T09:27:23.655Z,52.7
2019-01-03T09:37:27.303Z,53.4
2019-01-03T09:47:30.785Z,53.7
2019-01-03T09:57:34.196Z,52.5
2019-01-03T10:07:37.593Z,52
2019-01-03T10:17:40.988Z,52
2019-01-03T10:27:44.403Z,52.6
2019-01-03T10:37:47.833Z,51.2
2019-01-03T10:47:51.252Z,52
2019-01-03T10:57:54.675Z,52.2
2019-01-03T11:07:58.091Z,52.2
2019-01-03T11:18:01.480Z,51.2
2019-01-03T11:28:04.880Z,50.5
2019-01-03T11:38:08.276Z,49
2019-01-03T11:48:11.675Z,46.5
2019-01-03T11:58:15.114Z,47.3
2019-01-03T12:08:18.515Z,46.2
2019-01-03T12:18:21.925Z,45.5
2019-01-03T12:28:25.323Z,45
2019-01-03T12:38:28.748Z,43.8
2019-01-03T12:48:32.163Z,44.8
2019-01-03T12:58:35.607Z,44.2
2019-01-03T13:08:39.024Z,44.2
2019-01-03T13:18:42.456Z,43
2019-01-03T13:28:45.865Z,43.5
2019-01-03T13:38:49.293Z,43.6
2019-01-03T13:48:52.701Z,45.1
2019-01-03T14:09:04.382Z,49.5
2019-01-03T14:19:07.815Z,48.7
2019-01-03T14:29:11.214Z,47.2
2019-01-03T14:39:14.608Z,46.3
2019-01-03T14:49:18.025Z,44.9
2019-01-03T14:59:21.425Z,46.4
2019-01-03T15:09:24.880Z,47.4
2019-01-03T15:19:28.302Z,47.7
2019-01-03T15:29:31.754Z,47.1
2019-01-03T15:39:35.179Z,48.2
2019-01-03T15:49:38.612Z,48.9
2019-01-03T15:59:42.033Z,50.5
2019-01-03T16:09:45.545Z,50.6
2019-01-03T16:19:48.957Z,50.4
2019-01-03T16:29:52.376Z,50.8
2019-01-03T16:39:55.775Z,50.5
2019-01-03T16:49:59.187Z,51.2
2019-01-03T17:00:02.587Z,49.9
2019-01-03T17:10:05.995Z,48.3
2019-01-03T17:20:09.446Z,48.5
2019-01-03T17:30:12.866Z,48.6
2019-01-03T17:40:17.113Z,48
2019-01-03T17:50:20.533Z,48.1
2019-01-03T18:00:23.984Z,48.3
2019-01-03T18:10:27.405Z,47.7
2019-01-03T18:20:30.831Z,48.3
2019-01-03T18:30:34.262Z,49.1
2019-01-03T18:40:37.678Z,50.4
2019-01-03T18:50:41.123Z,51.5
2019-01-03T19:00:44.572Z,50.7
2019-01-03T19:10:48.000Z,51.6
2019-01-03T19:20:51.437Z,51.3
2019-01-03T19:30:54.859Z,52.5
2019-01-03T19:40:58.290Z,52.7
2019-01-03T19:51:01.734Z,53.5
2019-01-03T20:01:05.169Z,53.8
2019-01-03T20:11:08.615Z,54
2019-01-03T20:21:12.025Z,54
2019-01-03T20:31:15.452Z,54.2
2019-01-03T20:41:18.881Z,54.3
2019-01-03T20:51:22.312Z,54.3
2019-01-03T21:01:25.728Z,54.8
2019-01-03T21:11:29.147Z,54.8
2019-01-03T21:21:32.568Z,54.9
2019-01-03T21:31:36.003Z,54.9
2019-01-03T21:41:39.439Z,55.3
2019-01-03T21:51:42.846Z,55.3
2019-01-03T22:01:46.245Z,55.5
2019-01-03T22:11:49.656Z,55.2
2019-01-03T22:21:53.059Z,55
2019-01-03T22:31:56.452Z,55.3
2019-01-03T22:41:59.833Z,55.6
2019-01-03T22:52:03.390Z,55.7
2019-01-03T23:02:06.836Z,56.5
2019-01-03T23:12:10.281Z,56.9
2019-01-03T23:22:13.700Z,56.7
2019-01-03T23:32:17.113Z,57.2
2019-01-03T23:42:20.533Z,57.8
2019-01-03T23:52:23.956Z,57.6
